createdAt,value
2018-09-30T00:01:23.104Z,9.20
2018-09-30T00:03:57.205Z,9.30
2018-09-30T00:06:31.202Z,9.30
2018-09-30T00:09:05.369Z,9.40
2018-09-30T00:11:39.414Z,9.60
2018-09-30T00:14:13.606Z,9.60
2018-09-30T00:16:47.530Z,9.60
2018-09-30T00:19:21.619Z,9.70
2018-09-30T00:21:55.763Z,9.70
2018-09-30T00:24:30.499Z,9.60
2018-09-30T00:27:04.557Z,9.60
2018-09-30T00:29:38.526Z,9.60
2018-09-30T00:32:12.489Z,9.50
2018-09-30T00:34:46.559Z,9.50
2018-09-30T00:37:20.534Z,9.30
2018-09-30T00:39:54.574Z,9.20
2018-09-30T00:42:28.666Z,9.40
2018-09-30T00:45:02.655Z,9.20
2018-09-30T00:47:36.760Z,8.90
2018-09-30T00:50:11.612Z,8.80
2018-09-30T00:52:45.701Z,8.80
2018-09-30T00:55:19.705Z,8.60
2018-09-30T00:57:53.783Z,8.60
2018-09-30T01:00:27.878Z,8.50
2018-09-30T01:03:01.955Z,8.50
2018-09-30T01:05:36.110Z,8.30
2018-09-30T01:08:10.224Z,8.40
2018-09-30T01:10:44.333Z,8.60
2018-09-30T01:13:18.907Z,8.60
2018-09-30T01:15:53.029Z,8.50
2018-09-30T01:18:27.216Z,8.30
2018-09-30T01:21:02.102Z,8.30
2018-09-30T01:23:36.361Z,8.30
2018-09-30T01:26:11.907Z,8.50
2018-09-30T01:28:46.625Z,8.40
2018-09-30T01:31:20.606Z,8.40
2018-09-30T01:33:54.638Z,8.20
2018-09-30T01:36:28.738Z,8.30
2018-09-30T01:39:02.837Z,7.90
2018-09-30T01:41:37.713Z,8.10
2018-09-30T01:44:11.749Z,8.10
2018-09-30T01:46:45.827Z,8.00
2018-09-30T01:49:20.531Z,7.80
2018-09-30T01:51:54.749Z,7.80
2018-09-30T01:54:29.502Z,7.90
2018-09-30T01:57:03.605Z,7.90
2018-09-30T01:59:37.707Z,8.10
2018-09-30T02:02:11.879Z,8.30
2018-09-30T02:04:45.839Z,8.20
2018-09-30T02:07:19.926Z,8.10
2018-09-30T02:09:54.049Z,8.20
2018-09-30T02:12:28.083Z,8.10
2018-09-30T02:15:02.198Z,7.40
2018-09-30T02:17:36.274Z,7.50
2018-09-30T02:20:10.234Z,7.70
2018-09-30T02:22:44.217Z,7.80
2018-09-30T02:25:18.401Z,7.90
2018-09-30T02:27:52.362Z,7.70
2018-09-30T02:30:26.365Z,7.80
2018-09-30T02:33:00.382Z,7.80
2018-09-30T02:35:34.676Z,7.80
2018-09-30T02:38:08.799Z,7.80
2018-09-30T02:40:42.937Z,7.70
2018-09-30T02:43:16.834Z,8.00
2018-09-30T02:45:51.651Z,8.20
2018-09-30T02:48:25.751Z,8.20
2018-09-30T02:51:00.547Z,7.80
2018-09-30T02:53:34.463Z,7.80
2018-09-30T02:56:08.484Z,7.70
2018-09-30T02:58:42.542Z,7.70
2018-09-30T03:01:16.669Z,7.50
2018-09-30T03:03:50.823Z,7.50
2018-09-30T03:06:24.969Z,7.50
2018-09-30T03:08:59.096Z,7.70
2018-09-30T03:11:33.299Z,7.90
2018-09-30T03:14:07.376Z,8.00
2018-09-30T03:16:41.344Z,7.70
2018-09-30T03:19:15.491Z,7.80
2018-09-30T03:21:49.561Z,8.00
2018-09-30T03:24:23.690Z,8.00
2018-09-30T03:26:57.752Z,8.00
2018-09-30T03:29:31.729Z,8.00
2018-09-30T03:32:05.648Z,7.90
2018-09-30T03:34:39.654Z,7.90
2018-09-30T03:37:13.644Z,7.80
2018-09-30T03:39:48.519Z,7.50
2018-09-30T03:42:22.591Z,7.50
2018-09-30T03:44:56.729Z,7.70
2018-09-30T03:47:31.070Z,7.70
2018-09-30T03:50:05.228Z,7.60
2018-09-30T03:52:39.261Z,7.70
2018-09-30T03:55:13.388Z,7.40
2018-09-30T03:57:47.378Z,7.40
2018-09-30T04:00:21.570Z,7.50
2018-09-30T04:02:55.682Z,7.60
2018-09-30T04:05:29.706Z,7.70
2018-09-30T04:08:03.871Z,7.70
2018-09-30T04:10:38.030Z,7.30
2018-09-30T04:13:12.101Z,7.30
2018-09-30T04:15:46.819Z,7.00
2018-09-30T04:18:20.920Z,7.00
2018-09-30T04:20:54.836Z,7.20
2018-09-30T04:23:28.943Z,7.10
2018-09-30T04:26:02.854Z,6.90
2018-09-30T04:28:37.680Z,7.30
2018-09-30T04:31:11.746Z,7.20
2018-09-30T04:33:45.978Z,7.40
2018-09-30T04:36:20.122Z,7.30
2018-09-30T04:38:54.093Z,7.40
2018-09-30T04:41:28.223Z,7.30
2018-09-30T04:44:02.286Z,7.30
2018-09-30T04:46:36.350Z,7.30
2018-09-30T04:49:10.401Z,7.40
2018-09-30T04:51:44.524Z,7.20
2018-09-30T04:54:19.226Z,7.30
2018-09-30T04:56:53.302Z,7.30
2018-09-30T04:59:27.325Z,7.10
2018-09-30T05:02:01.392Z,7.00
2018-09-30T05:04:35.498Z,7.20
2018-09-30T05:07:10.395Z,7.20
2018-09-30T05:09:45.230Z,7.10
2018-09-30T05:12:19.225Z,7.10
2018-09-30T05:14:53.391Z,7.10
2018-09-30T05:17:27.617Z,7.10
2018-09-30T05:20:01.588Z,7.10
2018-09-30T05:22:35.680Z,7.10
2018-09-30T05:25:10.520Z,7.00
2018-09-30T05:27:44.638Z,6.90
2018-09-30T05:30:18.573Z,6.50
2018-09-30T05:32:52.641Z,6.00
2018-09-30T05:35:26.758Z,5.80
2018-09-30T05:38:00.876Z,5.60
2018-09-30T05:40:34.915Z,5.80
2018-09-30T05:43:08.987Z,5.90
2018-09-30T05:45:42.930Z,5.70
2018-09-30T05:48:16.913Z,5.80
2018-09-30T05:50:51.002Z,5.90
2018-09-30T05:53:25.190Z,5.80
2018-09-30T05:55:59.301Z,6.10
2018-09-30T05:58:33.378Z,6.20
2018-09-30T06:01:08.247Z,6.60
2018-09-30T06:03:42.959Z,6.60
2018-09-30T06:06:17.794Z,6.60
2018-09-30T06:08:51.907Z,6.50
2018-09-30T06:11:25.994Z,6.60
2018-09-30T06:14:00.156Z,6.70
2018-09-30T06:16:34.373Z,6.60
2018-09-30T06:19:08.342Z,6.80
2018-09-30T06:21:42.443Z,6.90
2018-09-30T06:24:16.652Z,6.90
2018-09-30T06:26:50.706Z,6.60
2018-09-30T06:29:24.952Z,6.90
2018-09-30T06:31:59.765Z,6.80
2018-09-30T06:34:33.706Z,6.80
2018-09-30T06:37:07.959Z,7.00
2018-09-30T06:39:42.689Z,7.40
2018-09-30T06:42:16.838Z,7.40
2018-09-30T06:44:51.010Z,7.30
2018-09-30T06:47:25.133Z,7.20
2018-09-30T06:49:59.970Z,7.00
2018-09-30T06:52:34.088Z,7.00
2018-09-30T06:55:08.918Z,6.90
2018-09-30T06:57:42.942Z,6.90
2018-09-30T07:00:16.910Z,7.00
2018-09-30T07:02:51.070Z,6.80
2018-09-30T07:05:25.058Z,6.80
2018-09-30T07:07:59.112Z,7.00
2018-09-30T07:10:33.082Z,7.20
2018-09-30T07:13:07.084Z,7.30
2018-09-30T07:15:41.136Z,7.40
2018-09-30T07:18:15.130Z,7.50
2018-09-30T07:20:49.219Z,7.40
2018-09-30T07:23:23.293Z,7.40
2018-09-30T07:25:57.336Z,7.60
2018-09-30T07:28:31.436Z,7.70
2018-09-30T07:31:05.469Z,7.90
2018-09-30T07:33:39.625Z,7.90
2018-09-30T07:36:13.557Z,7.70
2018-09-30T07:38:47.718Z,7.80
2018-09-30T07:41:22.014Z,7.90
2018-09-30T07:43:56.031Z,8.00
2018-09-30T07:46:30.160Z,8.10
2018-09-30T07:49:04.269Z,8.20
2018-09-30T07:51:39.160Z,8.40
2018-09-30T07:54:13.334Z,8.40
2018-09-30T07:56:49.962Z,8.40
2018-09-30T07:59:24.202Z,8.60
2018-09-30T08:01:58.489Z,8.70
2018-09-30T08:04:33.430Z,8.90
2018-09-30T08:07:08.204Z,8.90
2018-09-30T08:09:43.078Z,9.20
2018-09-30T08:12:17.060Z,9.20
2018-09-30T08:14:51.861Z,9.20
2018-09-30T08:17:25.982Z,9.20
2018-09-30T08:20:00.303Z,9.20
2018-09-30T08:22:34.709Z,9.30
2018-09-30T08:25:09.843Z,9.60
2018-09-30T08:27:43.851Z,9.60
2018-09-30T08:30:17.925Z,9.70
2018-09-30T08:32:52.862Z,9.90
2018-09-30T08:35:27.678Z,9.90
2018-09-30T08:38:01.681Z,9.90
2018-09-30T08:40:35.711Z,10.00
2018-09-30T08:43:09.772Z,10.20
2018-09-30T08:45:44.534Z,10.50
2018-09-30T08:48:19.398Z,10.70
2018-09-30T08:50:53.505Z,10.70
2018-09-30T08:53:28.399Z,10.90
2018-09-30T08:56:02.508Z,10.90
2018-09-30T08:58:36.476Z,11.10
2018-09-30T09:01:10.515Z,11.10
2018-09-30T09:03:44.678Z,11.10
2018-09-30T09:06:18.742Z,11.10
2018-09-30T09:08:53.064Z,11.30
2018-09-30T09:11:27.166Z,11.20
2018-09-30T09:14:01.290Z,11.40
2018-09-30T09:16:36.033Z,11.50
2018-09-30T09:19:10.138Z,11.50
2018-09-30T09:21:44.061Z,11.60
2018-09-30T09:24:18.134Z,11.50
2018-09-30T09:26:52.286Z,11.70
2018-09-30T09:29:26.486Z,11.80
2018-09-30T09:32:00.628Z,12.00
2018-09-30T09:34:35.537Z,12.00
2018-09-30T09:37:09.537Z,12.00
2018-09-30T09:39:43.712Z,12.30
2018-09-30T09:42:17.800Z,12.20
2018-09-30T09:44:51.996Z,12.50
2018-09-30T09:47:26.105Z,12.50
2018-09-30T09:50:00.217Z,12.50
2018-09-30T09:52:34.363Z,12.50
2018-09-30T09:55:08.617Z,12.60
2018-09-30T09:57:42.865Z,12.70
2018-09-30T10:00:16.982Z,12.60
2018-09-30T10:02:51.044Z,12.70
2018-09-30T10:05:25.188Z,12.80
2018-09-30T10:07:59.074Z,12.90
2018-09-30T10:10:33.104Z,12.80
2018-09-30T10:13:07.316Z,13.10
2018-09-30T10:15:41.250Z,13.10
2018-09-30T10:18:15.303Z,13.10
2018-09-30T10:20:49.412Z,13.20
2018-09-30T10:23:24.256Z,13.40
2018-09-30T10:25:58.249Z,13.40
2018-09-30T10:28:32.327Z,13.50
2018-09-30T10:31:06.380Z,13.70
2018-09-30T10:33:40.407Z,13.50
2018-09-30T10:36:14.402Z,13.50
2018-09-30T10:38:48.905Z,13.60
2018-09-30T10:41:23.005Z,13.80
2018-09-30T10:43:57.112Z,13.90
2018-09-30T10:46:31.095Z,13.90
2018-09-30T10:49:05.149Z,13.80
2018-09-30T10:51:39.966Z,14.20
2018-09-30T10:54:14.036Z,14.20
2018-09-30T10:56:48.153Z,14.20
2018-09-30T10:59:22.215Z,14.10
2018-09-30T11:01:56.225Z,14.10
2018-09-30T11:04:30.996Z,14.50
2018-09-30T11:07:05.051Z,14.40
2018-09-30T11:09:39.226Z,14.70
2018-09-30T11:12:13.372Z,14.70
2018-09-30T11:14:56.050Z,14.80
2018-09-30T11:17:30.123Z,14.70
2018-09-30T11:20:04.286Z,14.70
2018-09-30T11:22:39.181Z,14.90
2018-09-30T11:25:13.245Z,14.90
2018-09-30T11:27:48.114Z,15.10
2018-09-30T11:30:22.832Z,15.20
2018-09-30T11:32:57.668Z,15.20
2018-09-30T11:35:32.498Z,15.30
2018-09-30T11:38:07.316Z,15.20
2018-09-30T11:40:41.383Z,15.20
2018-09-30T11:43:15.518Z,15.20
2018-09-30T11:45:50.461Z,15.40
2018-09-30T11:48:24.635Z,15.40
2018-09-30T11:50:58.809Z,16.00
2018-09-30T11:53:32.954Z,15.90
2018-09-30T11:56:07.118Z,15.80
2018-09-30T11:58:41.724Z,15.60
2018-09-30T12:01:15.844Z,15.80
2018-09-30T12:03:50.057Z,15.80
2018-09-30T12:06:24.132Z,15.90
2018-09-30T12:08:58.273Z,16.10
2018-09-30T12:11:32.361Z,16.40
2018-09-30T12:14:07.299Z,16.60
2018-09-30T12:16:41.353Z,16.60
2018-09-30T12:19:15.286Z,16.50
2018-09-30T12:21:49.170Z,16.40
2018-09-30T12:24:23.237Z,16.50
2018-09-30T12:26:58.087Z,16.40
2018-09-30T12:29:32.872Z,16.50
2018-09-30T12:32:07.648Z,16.70
2018-09-30T12:34:41.830Z,16.70
2018-09-30T12:37:15.948Z,16.60
2018-09-30T12:39:51.803Z,16.50
2018-09-30T12:42:25.983Z,16.70
2018-09-30T12:45:00.025Z,16.70
2018-09-30T12:47:34.241Z,16.70
2018-09-30T12:50:08.205Z,16.80
2018-09-30T12:52:42.209Z,16.90
2018-09-30T12:55:17.065Z,17.20
2018-09-30T12:57:51.185Z,17.20
2018-09-30T13:00:25.165Z,17.30
2018-09-30T13:02:59.341Z,17.40
2018-09-30T13:05:33.310Z,17.40
2018-09-30T13:08:07.411Z,17.60
2018-09-30T13:10:41.565Z,17.80
2018-09-30T13:13:15.537Z,17.80
2018-09-30T13:15:49.712Z,18.10
2018-09-30T13:18:23.922Z,18.10
2018-09-30T13:20:58.063Z,17.90
2018-09-30T13:23:32.203Z,17.90
2018-09-30T13:26:06.343Z,17.90
2018-09-30T13:28:40.427Z,18.20
2018-09-30T13:31:14.546Z,18.10
2018-09-30T13:33:48.629Z,18.20
2018-09-30T13:36:22.782Z,18.00
2018-09-30T13:38:56.682Z,17.90
2018-09-30T13:41:31.430Z,18.10
2018-09-30T13:44:05.527Z,18.00
2018-09-30T13:46:39.633Z,17.90
2018-09-30T13:49:13.773Z,18.10
2018-09-30T13:51:47.733Z,18.10
2018-09-30T13:54:21.897Z,18.10
2018-09-30T13:56:56.719Z,18.50
2018-09-30T13:59:30.731Z,18.50
2018-09-30T14:02:04.742Z,18.20
2018-09-30T14:04:39.475Z,18.10
2018-09-30T14:07:13.613Z,18.20
2018-09-30T14:09:47.704Z,18.40
2018-09-30T14:12:21.789Z,18.50
2018-09-30T14:14:55.770Z,18.20
2018-09-30T14:17:29.937Z,18.10
2018-09-30T14:20:03.929Z,18.00
2018-09-30T14:22:37.944Z,18.20
2018-09-30T14:25:12.684Z,18.50
2018-09-30T14:27:46.747Z,18.50
2018-09-30T14:30:21.485Z,18.50
2018-09-30T14:32:55.576Z,18.50
2018-09-30T14:35:29.593Z,18.60
2018-09-30T14:38:03.600Z,18.70
2018-09-30T14:40:37.624Z,18.70
2018-09-30T14:43:11.534Z,18.80
2018-09-30T14:45:45.535Z,19.00
2018-09-30T14:48:19.746Z,19.00
2018-09-30T14:50:53.924Z,18.90
2018-09-30T14:53:27.898Z,18.90
2018-09-30T14:56:01.946Z,18.80
2018-09-30T14:58:36.678Z,18.80
2018-09-30T15:01:10.769Z,18.70
2018-09-30T15:03:45.573Z,18.80
2018-09-30T15:06:19.738Z,18.80
2018-09-30T15:08:53.717Z,18.70
2018-09-30T15:11:27.796Z,19.00
2018-09-30T15:14:01.769Z,18.90
2018-09-30T15:16:35.897Z,18.70
2018-09-30T15:19:09.944Z,18.70
2018-09-30T15:21:43.997Z,18.80
2018-09-30T15:24:19.577Z,18.90
2018-09-30T15:26:53.622Z,18.90
2018-09-30T15:29:27.841Z,18.80
2018-09-30T15:32:01.945Z,18.60
2018-09-30T15:34:36.136Z,18.70
2018-09-30T15:37:10.211Z,18.60
2018-09-30T15:39:44.334Z,18.50
2018-09-30T15:42:18.510Z,18.50
2018-09-30T15:44:52.723Z,18.50
2018-09-30T15:47:26.841Z,18.60
2018-09-30T15:50:01.013Z,18.60
2018-09-30T15:52:35.011Z,18.60
2018-09-30T15:55:09.155Z,18.70
2018-09-30T15:57:43.092Z,18.50
2018-09-30T16:00:17.302Z,18.40
2018-09-30T16:02:51.387Z,18.30
2018-09-30T16:05:25.351Z,18.30
2018-09-30T16:07:59.489Z,18.30
2018-09-30T16:10:33.492Z,18.10
2018-09-30T16:13:07.570Z,18.20
2018-09-30T16:15:41.758Z,18.30
2018-09-30T16:18:16.006Z,18.40
2018-09-30T16:20:50.212Z,18.40
2018-09-30T16:23:24.381Z,18.90
2018-09-30T16:25:58.487Z,19.80
2018-09-30T16:28:32.474Z,20.60
2018-09-30T16:31:06.438Z,21.00
2018-09-30T16:33:40.422Z,20.80
2018-09-30T16:36:15.424Z,20.50
2018-09-30T16:38:49.602Z,20.50
2018-09-30T16:41:25.145Z,20.50
2018-09-30T16:43:59.166Z,20.30
2018-09-30T16:46:34.081Z,19.40
2018-09-30T16:49:08.197Z,18.50
2018-09-30T16:51:42.413Z,18.40
2018-09-30T16:54:16.574Z,18.20
2018-09-30T16:56:50.755Z,17.80
2018-09-30T16:59:24.894Z,17.50
2018-09-30T17:01:59.023Z,17.10
2018-09-30T17:04:33.236Z,17.00
2018-09-30T17:07:07.462Z,16.90
2018-09-30T17:09:41.588Z,16.70
2018-09-30T17:12:15.609Z,16.60
2018-09-30T17:14:49.687Z,16.30
2018-09-30T17:17:24.566Z,16.00
2018-09-30T17:19:59.037Z,16.00
2018-09-30T17:22:33.005Z,16.00
2018-09-30T17:25:07.073Z,15.90
2018-09-30T17:27:41.356Z,15.80
2018-09-30T17:30:15.437Z,15.70
2018-09-30T17:32:49.408Z,15.50
2018-09-30T17:35:26.361Z,15.60
2018-09-30T17:38:01.231Z,15.50
2018-09-30T17:40:35.463Z,15.50
2018-09-30T17:43:09.503Z,15.40
2018-09-30T17:45:43.859Z,15.30
2018-09-30T17:48:18.094Z,15.20
2018-09-30T17:50:52.450Z,15.20
2018-09-30T17:53:26.335Z,14.80
2018-09-30T17:56:00.717Z,14.60
2018-09-30T17:59:01.668Z,14.40
2018-09-30T18:01:36.817Z,14.40
2018-09-30T18:04:11.045Z,14.40
2018-09-30T18:06:45.382Z,14.40
2018-09-30T18:09:19.762Z,14.60
2018-09-30T18:11:54.858Z,14.70
2018-09-30T18:14:29.161Z,14.70
2018-09-30T18:17:03.983Z,14.70
2018-09-30T18:19:37.981Z,14.70
2018-09-30T18:22:12.947Z,14.70
2018-09-30T18:24:48.696Z,14.60
2018-09-30T18:27:24.023Z,14.60
2018-09-30T18:30:00.013Z,14.50
2018-09-30T18:32:34.703Z,14.50
2018-09-30T18:35:10.448Z,14.50
2018-09-30T18:37:45.483Z,14.50
2018-09-30T18:40:20.419Z,14.50
2018-09-30T18:42:55.781Z,14.50
2018-09-30T18:45:32.311Z,14.40
2018-09-30T18:48:07.304Z,14.40
2018-09-30T18:50:41.551Z,14.40
2018-09-30T18:53:15.776Z,14.40
2018-09-30T18:55:50.626Z,14.30
2018-09-30T18:58:24.741Z,14.20
2018-09-30T19:00:59.090Z,14.20
2018-09-30T19:03:33.998Z,14.20
2018-09-30T19:06:08.078Z,14.20
2018-09-30T19:08:41.962Z,14.20
2018-09-30T19:11:17.004Z,14.20
2018-09-30T19:13:51.077Z,14.20
2018-09-30T19:16:25.336Z,14.10
2018-09-30T19:18:59.416Z,14.10
2018-09-30T19:21:33.581Z,14.10
2018-09-30T19:24:07.748Z,14.10
2018-09-30T19:26:41.745Z,14.10
2018-09-30T19:29:15.718Z,14.10
2018-09-30T19:31:50.658Z,14.10
2018-09-30T19:34:26.190Z,14.10
2018-09-30T19:37:00.420Z,14.10
2018-09-30T19:39:34.686Z,14.10
2018-09-30T19:42:08.774Z,14.10
2018-09-30T19:44:42.962Z,14.10
2018-09-30T19:47:17.465Z,14.00
2018-09-30T19:49:51.570Z,14.00
2018-09-30T19:52:25.651Z,14.00
2018-09-30T19:55:00.165Z,14.00
2018-09-30T19:57:34.234Z,13.90
2018-09-30T20:00:08.516Z,13.90
2018-09-30T20:02:42.706Z,13.90
2018-09-30T20:05:16.955Z,13.80
2018-09-30T20:07:51.471Z,13.60
2018-09-30T20:10:26.031Z,13.70
2018-09-30T20:13:00.094Z,13.60
2018-09-30T20:15:35.051Z,13.70
2018-09-30T20:18:09.385Z,13.60
2018-09-30T20:20:43.528Z,12.90
2018-09-30T20:23:18.109Z,12.80
2018-09-30T20:25:53.056Z,13.30
2018-09-30T20:28:27.007Z,13.30
2018-09-30T20:31:01.423Z,13.50
2018-09-30T20:33:35.369Z,13.70
2018-09-30T20:36:09.317Z,13.80
2018-09-30T20:38:43.701Z,13.80
2018-09-30T20:41:18.091Z,13.70
2018-09-30T20:43:53.247Z,14.00
2018-09-30T20:46:27.585Z,13.90
2018-09-30T20:49:02.959Z,13.80
2018-09-30T20:51:37.003Z,13.80
2018-09-30T20:54:11.372Z,13.60
2018-09-30T20:56:45.533Z,13.40
2018-09-30T20:59:19.861Z,13.20
2018-09-30T21:01:54.944Z,13.10
2018-09-30T21:04:29.279Z,13.10
2018-09-30T21:07:05.207Z,12.70
2018-09-30T21:09:39.373Z,12.70
2018-09-30T21:12:15.176Z,13.00
2018-09-30T21:14:49.301Z,13.00
2018-09-30T21:17:23.514Z,12.80
2018-09-30T21:19:57.541Z,12.70
2018-09-30T21:22:31.577Z,12.70
2018-09-30T21:25:05.924Z,12.60
2018-09-30T21:27:40.246Z,12.40
2018-09-30T21:30:14.591Z,12.60
2018-09-30T21:32:48.536Z,12.40
2018-09-30T21:35:22.702Z,12.40
2018-09-30T21:37:56.890Z,12.50
2018-09-30T21:40:31.214Z,12.60
2018-09-30T21:43:05.190Z,12.80
2018-09-30T21:45:39.269Z,12.80
2018-09-30T21:48:13.381Z,12.80
2018-09-30T21:50:47.902Z,12.70
2018-09-30T21:53:22.000Z,12.80
2018-09-30T21:55:56.051Z,12.80
2018-09-30T21:58:30.226Z,12.90
2018-09-30T22:01:04.361Z,13.00
2018-09-30T22:03:38.422Z,12.90
2018-09-30T22:06:13.170Z,12.90
2018-09-30T22:08:47.278Z,12.90
2018-09-30T22:11:21.335Z,12.80
2018-09-30T22:13:56.323Z,12.80
2018-09-30T22:16:30.429Z,12.80
2018-09-30T22:19:05.275Z,12.70
2018-09-30T22:21:39.998Z,12.70
2018-09-30T22:24:14.113Z,12.70
2018-09-30T22:26:48.225Z,12.80
2018-09-30T22:29:22.204Z,12.80
2018-09-30T22:31:56.279Z,12.70
2018-09-30T22:34:30.287Z,12.70
2018-09-30T22:37:04.332Z,12.60
2018-09-30T22:39:38.244Z,12.30
2018-09-30T22:42:12.248Z,12.40
2018-09-30T22:44:46.309Z,12.30
2018-09-30T22:47:20.320Z,12.50
2018-09-30T22:49:54.375Z,12.40
2018-09-30T22:52:28.447Z,12.60
2018-09-30T22:55:02.513Z,12.60
2018-09-30T22:57:36.614Z,12.80
2018-09-30T23:00:11.509Z,12.80
2018-09-30T23:02:45.606Z,12.80
2018-09-30T23:05:20.229Z,13.00
2018-09-30T23:07:54.320Z,13.00
2018-09-30T23:10:29.067Z,13.00
2018-09-30T23:13:03.199Z,13.00
2018-09-30T23:15:37.369Z,13.10
2018-09-30T23:18:11.566Z,13.10
2018-09-30T23:20:45.598Z,13.10
2018-09-30T23:23:19.490Z,13.20
2018-09-30T23:25:53.477Z,13.20
2018-09-30T23:28:27.459Z,13.10
2018-09-30T23:31:01.609Z,12.80
2018-09-30T23:33:35.659Z,12.80
2018-09-30T23:36:09.819Z,12.90
2018-09-30T23:38:43.821Z,12.80
2018-09-30T23:41:17.987Z,12.80
2018-09-30T23:43:52.123Z,12.70
2018-09-30T23:46:26.271Z,12.60
2018-09-30T23:49:00.286Z,12.40
2018-09-30T23:51:34.363Z,12.50
2018-09-30T23:54:09.205Z,12.60
2018-09-30T23:56:43.298Z,12.60
2018-09-30T23:59:17.424Z,12.60
